createdAt,value
2022-10-09T04:02:03.540Z,6.08
2022-10-09T04:06:16.132Z,6.27
2022-10-09T04:10:27.667Z,6.41
2022-10-09T04:14:40.434Z,6.35
2022-10-09T04:18:52.119Z,6.32
2022-10-09T04:23:03.625Z,6.40
2022-10-09T04:27:15.411Z,6.36
2022-10-09T04:31:26.988Z,6.34
2022-10-09T04:35:42.472Z,6.22
2022-10-09T04:39:54.015Z,6.19
2022-10-09T04:44:05.679Z,6.19
2022-10-09T04:48:17.195Z,6.17
2022-10-09T04:52:29.071Z,6.08
2022-10-09T04:56:40.640Z,6.11
2022-10-09T05:00:52.197Z,6.11
2022-10-09T05:05:04.049Z,6.07
2022-10-09T05:09:15.599Z,5.96
2022-10-09T05:13:30.441Z,5.95
2022-10-09T05:17:41.974Z,6.00
2022-10-09T05:21:54.939Z,6.05
2022-10-09T05:26:09.344Z,6.05
2022-10-09T05:30:20.816Z,5.89
2022-10-09T05:34:34.214Z,5.87
2022-10-09T05:38:46.184Z,5.87
2022-10-09T05:42:57.690Z,5.75
2022-10-09T05:47:09.139Z,5.77
2022-10-09T05:51:29.521Z,5.78
2022-10-09T05:55:41.192Z,5.72
2022-10-09T05:59:52.657Z,5.73
2022-10-09T06:04:05.083Z,5.62
2022-10-09T06:08:16.547Z,5.65
2022-10-09T06:12:27.998Z,5.68
2022-10-09T06:16:42.203Z,5.73
2022-10-09T06:20:59.391Z,5.74
2022-10-09T06:25:11.253Z,5.81
2022-10-09T06:29:22.838Z,6.07
2022-10-09T06:33:37.027Z,6.13
2022-10-09T06:37:48.455Z,6.06
2022-10-09T06:41:59.934Z,6.17
2022-10-09T06:46:35.318Z,6.12
2022-10-09T06:50:46.879Z,6.16
2022-10-09T06:54:58.356Z,6.14
2022-10-09T06:59:10.991Z,6.20
2022-10-09T07:03:22.502Z,6.17
2022-10-09T07:07:38.805Z,6.40
2022-10-09T07:11:50.287Z,7.46
2022-10-09T07:16:04.807Z,7.52
2022-10-09T07:20:16.734Z,7.68
2022-10-09T07:24:28.280Z,7.67
2022-10-09T07:28:41.267Z,7.72
2022-10-09T07:32:52.888Z,7.73
2022-10-09T07:37:04.406Z,7.72
2022-10-09T07:41:15.972Z,7.64
2022-10-09T07:45:27.698Z,7.66
2022-10-09T07:49:39.223Z,7.77
2022-10-09T07:53:51.618Z,7.83
2022-10-09T07:58:03.281Z,7.92
2022-10-09T08:02:14.842Z,7.95
2022-10-09T08:06:26.986Z,8.10
2022-10-09T08:10:38.508Z,8.16
2022-10-09T08:14:50.027Z,8.31
2022-10-09T08:19:02.535Z,8.39
2022-10-09T08:23:14.128Z,8.49
2022-10-09T08:27:25.705Z,8.69
2022-10-09T08:31:37.496Z,8.86
2022-10-09T08:35:49.939Z,9.00
2022-10-09T08:40:01.832Z,9.18
2022-10-09T08:44:25.528Z,9.32
2022-10-09T08:48:43.827Z,9.51
2022-10-09T08:53:14.745Z,9.67
2022-10-09T08:57:32.574Z,9.85
2022-10-09T09:01:49.746Z,10.05
2022-10-09T09:06:09.557Z,10.21
2022-10-09T09:10:38.697Z,10.35
2022-10-09T09:15:07.786Z,10.62
2022-10-09T09:19:48.926Z,10.87
2022-10-09T09:24:06.910Z,11.15
2022-10-09T09:28:25.186Z,11.32
2022-10-09T09:32:39.723Z,11.56
2022-10-09T09:36:57.240Z,11.80
2022-10-09T09:41:09.317Z,11.97
2022-10-09T09:45:25.465Z,12.15
2022-10-09T09:49:40.398Z,12.41
2022-10-09T09:54:14.576Z,12.62
2022-10-09T09:58:47.910Z,12.83
2022-10-09T10:03:16.796Z,13.05
2022-10-09T10:07:34.643Z,13.19
2022-10-09T10:11:57.378Z,13.42
2022-10-09T10:16:09.366Z,13.63
2022-10-09T10:20:21.076Z,13.73
2022-10-09T10:24:41.910Z,13.84
2022-10-09T10:29:02.000Z,14.04
2022-10-09T10:33:22.159Z,14.08
2022-10-09T10:37:33.693Z,14.21
2022-10-09T10:41:51.056Z,14.35
2022-10-09T10:46:28.211Z,14.51
2022-10-09T10:51:11.363Z,14.65
2022-10-09T10:56:04.184Z,14.81
2022-10-09T11:00:17.439Z,14.98
2022-10-09T11:04:35.041Z,15.06
2022-10-09T11:09:05.868Z,15.17
2022-10-09T11:13:34.898Z,15.30
2022-10-09T11:18:07.998Z,15.36
2022-10-09T11:22:22.321Z,15.34
2022-10-09T11:26:45.971Z,15.39
2022-10-09T11:31:02.666Z,15.60
2022-10-09T11:35:20.690Z,15.75
2022-10-09T11:39:32.844Z,15.76
2022-10-09T11:43:58.049Z,15.92
2022-10-09T11:48:18.322Z,15.94
2022-10-09T11:52:41.928Z,16.04
2022-10-09T11:57:06.389Z,16.17
2022-10-09T12:01:29.488Z,16.17
2022-10-09T12:05:44.170Z,16.34
2022-10-09T12:10:09.087Z,16.50
2022-10-09T12:14:25.840Z,16.42
2022-10-09T12:18:46.809Z,16.40
2022-10-09T12:23:25.339Z,16.49
2022-10-09T12:27:39.237Z,16.64
2022-10-09T12:31:53.901Z,16.65
2022-10-09T12:36:22.417Z,16.64
2022-10-09T12:40:33.923Z,16.72
2022-10-09T12:44:46.690Z,16.74
2022-10-09T12:48:59.621Z,16.74
2022-10-09T12:53:26.673Z,16.72
2022-10-09T12:57:38.971Z,16.79
2022-10-09T13:01:55.919Z,16.87
2022-10-09T13:06:15.737Z,16.76
2022-10-09T13:10:27.961Z,16.76
2022-10-09T13:15:00.251Z,16.76
2022-10-09T13:19:32.929Z,16.86
2022-10-09T13:23:44.447Z,16.84
2022-10-09T13:27:56.914Z,16.73
2022-10-09T13:32:12.329Z,16.83
2022-10-09T13:36:23.799Z,16.75
2022-10-09T13:40:35.305Z,16.79
2022-10-09T13:44:46.794Z,16.90
2022-10-09T13:48:58.313Z,16.91
2022-10-09T13:53:10.312Z,16.92
2022-10-09T13:57:21.840Z,16.98
2022-10-09T14:01:33.423Z,16.92
2022-10-09T14:05:45.212Z,16.94
2022-10-09T14:09:56.719Z,16.95
2022-10-09T14:14:08.285Z,16.79
2022-10-09T14:18:19.834Z,16.84
2022-10-09T14:22:31.370Z,16.70
2022-10-09T14:26:44.276Z,16.77
2022-10-09T14:30:58.111Z,16.75
2022-10-09T14:35:09.862Z,16.70
2022-10-09T14:39:21.343Z,16.76
2022-10-09T14:43:32.924Z,16.79
2022-10-09T14:47:44.425Z,16.73
2022-10-09T14:51:55.955Z,16.68
2022-10-09T14:56:11.934Z,16.54
2022-10-09T15:00:23.506Z,16.49
2022-10-09T15:04:35.106Z,16.53
2022-10-09T15:08:46.647Z,16.55
2022-10-09T15:12:58.155Z,16.48
2022-10-09T15:17:09.699Z,16.36
2022-10-09T15:21:28.273Z,16.33
2022-10-09T15:25:39.780Z,16.32
2022-10-09T15:29:51.361Z,16.25
2022-10-09T15:34:03.549Z,16.23
2022-10-09T15:38:16.906Z,16.14
2022-10-09T15:42:28.403Z,16.10
2022-10-09T15:46:39.906Z,16.04
2022-10-09T15:50:53.581Z,16.01
2022-10-09T15:55:05.491Z,15.97
2022-10-09T15:59:17.049Z,15.87
2022-10-09T16:03:29.005Z,15.74
2022-10-09T16:07:41.294Z,15.65
2022-10-09T16:11:52.897Z,15.53
2022-10-09T16:16:09.227Z,15.46
2022-10-09T16:20:20.720Z,15.35
2022-10-09T16:24:32.606Z,15.18
2022-10-09T16:28:45.403Z,15.04
2022-10-09T16:32:56.983Z,14.85
2022-10-09T16:37:08.498Z,14.70
2022-10-09T16:41:21.548Z,14.47
2022-10-09T16:45:33.111Z,14.24
2022-10-09T16:49:44.622Z,14.07
2022-10-09T16:53:58.828Z,13.86
2022-10-09T16:58:10.344Z,13.71
2022-10-09T17:02:21.910Z,13.54
2022-10-09T17:06:33.511Z,13.36
2022-10-09T17:10:45.239Z,13.15
2022-10-09T17:14:56.993Z,13.01
2022-10-09T17:19:08.731Z,12.87
2022-10-09T17:23:20.268Z,13.01
2022-10-09T17:27:31.804Z,13.24
2022-10-09T17:31:43.392Z,13.11
2022-10-09T17:35:55.002Z,12.95
2022-10-09T17:40:06.828Z,12.73
2022-10-09T17:44:18.316Z,12.59
2022-10-09T17:48:32.982Z,12.41
2022-10-09T17:52:44.539Z,12.36
2022-10-09T17:56:56.078Z,12.46
2022-10-09T18:01:09.023Z,12.42
2022-10-09T18:05:20.579Z,12.38
2022-10-09T18:09:32.764Z,12.21
2022-10-09T18:14:28.293Z,11.88
2022-10-09T18:18:51.186Z,11.57
2022-10-09T18:23:07.261Z,11.20
2022-10-09T18:27:23.957Z,10.87
2022-10-09T18:31:35.968Z,10.74
2022-10-09T18:35:57.243Z,11.04
2022-10-09T18:40:09.117Z,11.04
2022-10-09T18:44:44.402Z,11.35
2022-10-09T18:53:58.178Z,11.91
2022-10-09T18:58:58.014Z,12.00
2022-10-09T19:03:17.560Z,11.87
2022-10-09T19:07:29.390Z,11.77
2022-10-09T19:12:08.703Z,11.72
2022-10-09T19:17:00.748Z,11.58
2022-10-09T19:21:34.469Z,11.54
2022-10-09T19:27:06.641Z,11.52
2022-10-09T19:31:51.026Z,11.23
2022-10-09T19:41:54.055Z,11.09
2022-10-09T19:46:52.231Z,11.19
2022-10-09T19:51:22.616Z,11.13
2022-10-09T20:00:27.058Z,11.11
2022-10-09T20:04:38.913Z,10.74
2022-10-09T20:08:50.601Z,10.64
2022-10-09T20:13:02.316Z,10.65
2022-10-09T20:17:13.806Z,10.77
2022-10-09T20:21:25.847Z,10.67
2022-10-09T20:25:37.379Z,10.62
2022-10-09T20:29:48.909Z,10.43
2022-10-09T20:34:00.385Z,10.08
2022-10-09T20:38:11.950Z,9.81
2022-10-09T20:42:23.463Z,9.74
2022-10-09T20:46:37.399Z,9.50
2022-10-09T20:50:49.063Z,9.33
2022-10-09T20:55:00.656Z,9.27
2022-10-09T20:59:12.938Z,9.19
2022-10-09T21:03:25.010Z,9.02
2022-10-09T21:07:36.524Z,8.93
2022-10-09T21:11:48.153Z,8.88
2022-10-09T21:15:59.738Z,8.79
2022-10-09T21:20:11.264Z,8.75
2022-10-09T21:24:22.817Z,8.70
2022-10-09T21:28:34.375Z,8.60
